sensor_id;sensor_type;location;lat;lon;timestamp;P1;durP1;ratioP1;P2;durP2;ratioP2
69917;SDS011;57203;42.672;23.334;2023-02-22T00:00:50;17.3;;;8.5;;
69917;SDS011;57203;42.672;23.334;2023-02-22T00:01:50;17.3;;;8.9;;
69917;SDS011;57203;42.672;23.334;2023-02-22T00:02:51;17.1;;;9.0;;
69917;SDS011;57203;42.672;23.334;2023-02-22T00:03:51;13.4;;;8.4;;
69917;SDS011;57203;42.672;23.334;2023-02-22T00:04:51;19.1;;;9.3;;
69917;SDS011;57203;42.672;23.334;2023-02-22T00:05:54;17.3;;;8.8;;
69917;SDS011;57203;42.672;23.334;2023-02-22T00:06:51;17.3;;;9.0;;
69917;SDS011;57203;42.672;23.334;2023-02-22T00:07:52;18.0;;;9.3;;
69917;SDS011;57203;42.672;23.334;2023-02-22T00:08:52;18.0;;;8.2;;
69917;SDS011;57203;42.672;23.334;2023-02-22T00:09:52;16.1;;;9.3;;
69917;SDS011;57203;42.672;23.334;2023-02-22T00:10:52;20.0;;;9.2;;
69917;SDS011;57203;42.672;23.334;2023-02-22T00:12:53;16.9;;;8.4;;
69917;SDS011;57203;42.672;23.334;2023-02-22T00:13:53;16.9;;;9.3;;
69917;SDS011;57203;42.672;23.334;2023-02-22T00:14:53;16.8;;;8.7;;
69917;SDS011;57203;42.672;23.334;2023-02-22T00:15:53;16.8;;;9.0;;
69917;SDS011;57203;42.672;23.334;2023-02-22T00:16:53;17.5;;;8.6;;
69917;SDS011;57203;42.672;23.334;2023-02-22T00:17:53;14.0;;;8.5;;
69917;SDS011;57203;42.672;23.334;2023-02-22T00:18:54;18.9;;;9.4;;
69917;SDS011;57203;42.672;23.334;2023-02-22T00:19:54;18.9;;;9.0;;
69917;SDS011;57203;42.672;23.334;2023-02-22T00:20:54;21.2;;;8.4;;
69917;SDS011;57203;42.672;23.334;2023-02-22T00:21:54;16.3;;;8.1;;
69917;SDS011;57203;42.672;23.334;2023-02-22T00:22:54;16.3;;;8.9;;
69917;SDS011;57203;42.672;23.334;2023-02-22T00:23:54;16.1;;;7.9;;
69917;SDS011;57203;42.672;23.334;2023-02-22T00:24:55;16.1;;;8.3;;
69917;SDS011;57203;42.672;23.334;2023-02-22T00:25:55;14.8;;;8.9;;
69917;SDS011;57203;42.672;23.334;2023-02-22T00:26:55;16.6;;;7.7;;
69917;SDS011;57203;42.672;23.334;2023-02-22T00:27:55;14.4;;;8.3;;
69917;SDS011;57203;42.672;23.334;2023-02-22T00:28:55;14.4;;;7.5;;
69917;SDS011;57203;42.672;23.334;2023-02-22T00:29:55;16.8;;;8.3;;
69917;SDS011;57203;42.672;23.334;2023-02-22T00:30:56;16.8;;;7.5;;
69917;SDS011;57203;42.672;23.334;2023-02-22T00:31:56;12.6;;;7.2;;
69917;SDS011;57203;42.672;23.334;2023-02-22T00:32:56;15.0;;;8.3;;
69917;SDS011;57203;42.672;23.334;2023-02-22T00:33:56;15.0;;;7.1;;
69917;SDS011;57203;42.672;23.334;2023-02-22T00:34:56;12.9;;;7.2;;
69917;SDS011;57203;42.672;23.334;2023-02-22T00:35:56;13.2;;;7.4;;
69917;SDS011;57203;42.672;23.334;2023-02-22T00:37:58;13.8;;;8.2;;
69917;SDS011;57203;42.672;23.334;2023-02-22T00:38:57;17.2;;;6.7;;
69917;SDS011;57203;42.672;23.334;2023-02-22T00:40:57;12.4;;;7.0;;
69917;SDS011;57203;42.672;23.334;2023-02-22T00:41:57;10.8;;;7.3;;
69917;SDS011;57203;42.672;23.334;2023-02-22T00:42:58;15.8;;;7.2;;
69917;SDS011;57203;42.672;23.334;2023-02-22T00:43:58;12.1;;;6.6;;
69917;SDS011;57203;42.672;23.334;2023-02-22T00:44:58;12.1;;;6.4;;
69917;SDS011;57203;42.672;23.334;2023-02-22T00:45:58;12.9;;;6.8;;
69917;SDS011;57203;42.672;23.334;2023-02-22T00:46:58;14.9;;;6.5;;
69917;SDS011;57203;42.672;23.334;2023-02-22T00:47:59;14.3;;;7.3;;
69917;SDS011;57203;42.672;23.334;2023-02-22T00:48:59;14.3;;;7.0;;
69917;SDS011;57203;42.672;23.334;2023-02-22T00:49:59;13.7;;;6.8;;
69917;SDS011;57203;42.672;23.334;2023-02-22T00:50:59;13.7;;;6.9;;
69917;SDS011;57203;42.672;23.334;2023-02-22T00:51:59;11.0;;;6.1;;
69917;SDS011;57203;42.672;23.334;2023-02-22T00:53:00;11.0;;;6.8;;
69917;SDS011;57203;42.672;23.334;2023-02-22T00:54:00;11.1;;;6.6;;
69917;SDS011;57203;42.672;23.334;2023-02-22T00:55:00;12.1;;;6.3;;
69917;SDS011;57203;42.672;23.334;2023-02-22T00:56:00;10.6;;;6.1;;
69917;SDS011;57203;42.672;23.334;2023-02-22T00:57:00;15.4;;;6.4;;
69917;SDS011;57203;42.672;23.334;2023-02-22T00:58:01;15.4;;;6.3;;
69917;SDS011;57203;42.672;23.334;2023-02-22T01:00:01;10.9;;;6.4;;
69917;SDS011;57203;42.672;23.334;2023-02-22T01:01:01;10.9;;;6.8;;
69917;SDS011;57203;42.672;23.334;2023-02-22T01:02:01;13.6;;;6.6;;
69917;SDS011;57203;42.672;23.334;2023-02-22T01:03:01;13.6;;;6.7;;
69917;SDS011;57203;42.672;23.334;2023-02-22T01:04:01;11.1;;;6.1;;
69917;SDS011;57203;42.672;23.334;2023-02-22T01:06:02;11.6;;;6.8;;
69917;SDS011;57203;42.672;23.334;2023-02-22T01:07:02;11.6;;;6.2;;
69917;SDS011;57203;42.672;23.334;2023-02-22T01:09:02;10.7;;;6.0;;
69917;SDS011;57203;42.672;23.334;2023-02-22T01:10:02;13.4;;;5.6;;
69917;SDS011;57203;42.672;23.334;2023-02-22T01:11:03;12.1;;;6.0;;
69917;SDS011;57203;42.672;23.334;2023-02-22T01:12:03;12.1;;;5.8;;
69917;SDS011;57203;42.672;23.334;2023-02-22T01:13:03;10.9;;;6.3;;
69917;SDS011;57203;42.672;23.334;2023-02-22T01:14:03;10.7;;;5.9;;
69917;SDS011;57203;42.672;23.334;2023-02-22T01:16:03;10.9;;;5.8;;
69917;SDS011;57203;42.672;23.334;2023-02-22T01:17:03;10.8;;;7.0;;
69917;SDS011;57203;42.672;23.334;2023-02-22T01:18:04;11.0;;;6.2;;
69917;SDS011;57203;42.672;23.334;2023-02-22T01:19:04;8.7;;;5.8;;
69917;SDS011;57203;42.672;23.334;2023-02-22T01:20:04;10.4;;;5.5;;
69917;SDS011;57203;42.672;23.334;2023-02-22T01:21:04;10.4;;;5.3;;
69917;SDS011;57203;42.672;23.334;2023-02-22T01:22:04;10.3;;;6.0;;
69917;SDS011;57203;42.672;23.334;2023-02-22T01:23:05;8.6;;;5.6;;
69917;SDS011;57203;42.672;23.334;2023-02-22T01:24:05;11.6;;;6.1;;
69917;SDS011;57203;42.672;23.334;2023-02-22T01:25:05;11.6;;;5.5;;
69917;SDS011;57203;42.672;23.334;2023-02-22T01:26:05;12.1;;;6.1;;
69917;SDS011;57203;42.672;23.334;2023-02-22T01:27:05;13.4;;;7.4;;
69917;SDS011;57203;42.672;23.334;2023-02-22T01:28:06;13.4;;;7.2;;
69917;SDS011;57203;42.672;23.334;2023-02-22T01:29:05;13.2;;;6.7;;
69917;SDS011;57203;42.672;23.334;2023-02-22T01:30:06;13.2;;;6.3;;
69917;SDS011;57203;42.672;23.334;2023-02-22T01:31:06;10.8;;;6.9;;
69917;SDS011;57203;42.672;23.334;2023-02-22T01:32:06;13.4;;;6.7;;
69917;SDS011;57203;42.672;23.334;2023-02-22T01:33:06;13.4;;;6.0;;
69917;SDS011;57203;42.672;23.334;2023-02-22T01:34:06;11.8;;;5.6;;
69917;SDS011;57203;42.672;23.334;2023-02-22T01:35:08;12.0;;;6.6;;
69917;SDS011;57203;42.672;23.334;2023-02-22T01:36:07;12.0;;;6.7;;
69917;SDS011;57203;42.672;23.334;2023-02-22T01:37:07;13.9;;;6.6;;
69917;SDS011;57203;42.672;23.334;2023-02-22T01:38:07;15.3;;;5.7;;
69917;SDS011;57203;42.672;23.334;2023-02-22T01:39:07;11.1;;;5.0;;
69917;SDS011;57203;42.672;23.334;2023-02-22T01:40:08;8.3;;;5.8;;
69917;SDS011;57203;42.672;23.334;2023-02-22T01:41:08;11.6;;;6.2;;
69917;SDS011;57203;42.672;23.334;2023-02-22T01:42:08;11.3;;;5.3;;
69917;SDS011;57203;42.672;23.334;2023-02-22T01:43:14;10.2;;;6.0;;
69917;SDS011;57203;42.672;23.334;2023-02-22T01:44:17;10.1;;;5.6;;
69917;SDS011;57203;42.672;23.334;2023-02-22T01:46:18;11.8;;;5.7;;
69917;SDS011;57203;42.672;23.334;2023-02-22T01:47:08;10.5;;;5.8;;
69917;SDS011;57203;42.672;23.334;2023-02-22T01:48:11;10.5;;;6.4;;
69917;SDS011;57203;42.672;23.334;2023-02-22T01:49:09;14.0;;;6.9;;
69917;SDS011;57203;42.672;23.334;2023-02-22T01:50:09;14.0;;;6.3;;
69917;SDS011;57203;42.672;23.334;2023-02-22T01:51:10;11.1;;;6.0;;
69917;SDS011;57203;42.672;23.334;2023-02-22T01:52:10;10.2;;;6.8;;
69917;SDS011;57203;42.672;23.334;2023-02-22T01:53:10;9.7;;;6.5;;
69917;SDS011;57203;42.672;23.334;2023-02-22T01:54:11;16.9;;;8.3;;
69917;SDS011;57203;42.672;23.334;2023-02-22T01:55:10;16.9;;;9.1;;
69917;SDS011;57203;42.672;23.334;2023-02-22T01:56:10;15.4;;;8.1;;
69917;SDS011;57203;42.672;23.334;2023-02-22T01:57:13;15.4;;;9.0;;
69917;SDS011;57203;42.672;23.334;2023-02-22T01:58:11;18.9;;;9.8;;
69917;SDS011;57203;42.672;23.334;2023-02-22T01:59:11;18.9;;;8.4;;
69917;SDS011;57203;42.672;23.334;2023-02-22T02:00:11;12.8;;;7.7;;
69917;SDS011;57203;42.672;23.334;2023-02-22T02:01:11;12.8;;;7.4;;
69917;SDS011;57203;42.672;23.334;2023-02-22T02:03:13;13.3;;;7.0;;
69917;SDS011;57203;42.672;23.334;2023-02-22T02:04:13;13.3;;;7.4;;
69917;SDS011;57203;42.672;23.334;2023-02-22T02:05:12;11.5;;;7.1;;
69917;SDS011;57203;42.672;23.334;2023-02-22T02:07:12;13.4;;;7.0;;
69917;SDS011;57203;42.672;23.334;2023-02-22T02:08:15;13.6;;;7.4;;
69917;SDS011;57203;42.672;23.334;2023-02-22T02:09:15;13.6;;;7.6;;
69917;SDS011;57203;42.672;23.334;2023-02-22T02:11:13;13.5;;;7.3;;
69917;SDS011;57203;42.672;23.334;2023-02-22T02:12:14;14.5;;;8.1;;
69917;SDS011;57203;42.672;23.334;2023-02-22T02:13:13;16.8;;;7.9;;
69917;SDS011;57203;42.672;23.334;2023-02-22T02:14:13;14.4;;;7.5;;
69917;SDS011;57203;42.672;23.334;2023-02-22T02:15:15;14.4;;;7.3;;
69917;SDS011;57203;42.672;23.334;2023-02-22T02:16:14;18.2;;;8.5;;
69917;SDS011;57203;42.672;23.334;2023-02-22T02:17:15;18.2;;;8.3;;
69917;SDS011;57203;42.672;23.334;2023-02-22T02:18:14;15.9;;;8.1;;
69917;SDS011;57203;42.672;23.334;2023-02-22T02:19:15;15.2;;;8.6;;
69917;SDS011;57203;42.672;23.334;2023-02-22T02:20:16;17.8;;;8.7;;
69917;SDS011;57203;42.672;23.334;2023-02-22T02:21:25;18.3;;;8.8;;
69917;SDS011;57203;42.672;23.334;2023-02-22T02:22:18;19.1;;;8.6;;
69917;SDS011;57203;42.672;23.334;2023-02-22T02:24:26;17.4;;;8.3;;
69917;SDS011;57203;42.672;23.334;2023-02-22T02:26:22;17.9;;;8.5;;
69917;SDS011;57203;42.672;23.334;2023-02-22T02:27:17;15.5;;;8.0;;
69917;SDS011;57203;42.672;23.334;2023-02-22T02:28:21;15.5;;;9.2;;
69917;SDS011;57203;42.672;23.334;2023-02-22T02:29:25;18.2;;;9.3;;
69917;SDS011;57203;42.672;23.334;2023-02-22T02:32:26;21.9;;;10.6;;
69917;SDS011;57203;42.672;23.334;2023-02-22T02:33:17;23.3;;;11.2;;
69917;SDS011;57203;42.672;23.334;2023-02-22T02:34:17;20.3;;;11.6;;
69917;SDS011;57203;42.672;23.334;2023-02-22T02:35:18;21.7;;;11.0;;
69917;SDS011;57203;42.672;23.334;2023-02-22T02:36:18;21.7;;;11.1;;
69917;SDS011;57203;42.672;23.334;2023-02-22T02:37:19;22.8;;;11.5;;
69917;SDS011;57203;42.672;23.334;2023-02-22T02:38:20;22.9;;;11.8;;
69917;SDS011;57203;42.672;23.334;2023-02-22T02:39:19;22.9;;;11.7;;
69917;SDS011;57203;42.672;23.334;2023-02-22T02:40:19;22.2;;;10.6;;
69917;SDS011;57203;42.672;23.334;2023-02-22T02:41:19;19.1;;;11.2;;
69917;SDS011;57203;42.672;23.334;2023-02-22T02:42:19;22.2;;;11.5;;
69917;SDS011;57203;42.672;23.334;2023-02-22T02:43:20;22.2;;;11.2;;
69917;SDS011;57203;42.672;23.334;2023-02-22T02:44:19;20.4;;;11.5;;
69917;SDS011;57203;42.672;23.334;2023-02-22T02:45:20;20.7;;;10.3;;
69917;SDS011;57203;42.672;23.334;2023-02-22T02:46:19;18.6;;;11.1;;
69917;SDS011;57203;42.672;23.334;2023-02-22T02:47:20;22.9;;;11.2;;
69917;SDS011;57203;42.672;23.334;2023-02-22T02:48:20;22.9;;;10.8;;
69917;SDS011;57203;42.672;23.334;2023-02-22T02:49:21;22.6;;;11.3;;
69917;SDS011;57203;42.672;23.334;2023-02-22T02:50:20;20.2;;;10.1;;
69917;SDS011;57203;42.672;23.334;2023-02-22T02:51:20;20.4;;;11.1;;
69917;SDS011;57203;42.672;23.334;2023-02-22T02:52:20;19.7;;;10.4;;
69917;SDS011;57203;42.672;23.334;2023-02-22T02:53:21;19.4;;;10.2;;
69917;SDS011;57203;42.672;23.334;2023-02-22T02:54:20;19.4;;;11.8;;
69917;SDS011;57203;42.672;23.334;2023-02-22T02:55:20;22.8;;;10.9;;
69917;SDS011;57203;42.672;23.334;2023-02-22T02:56:20;19.7;;;11.7;;
69917;SDS011;57203;42.672;23.334;2023-02-22T02:57:21;21.0;;;12.4;;
69917;SDS011;57203;42.672;23.334;2023-02-22T02:58:21;18.7;;;10.3;;
69917;SDS011;57203;42.672;23.334;2023-02-22T02:59:23;18.7;;;10.8;;
69917;SDS011;57203;42.672;23.334;2023-02-22T03:00:22;20.3;;;9.9;;
69917;SDS011;57203;42.672;23.334;2023-02-22T03:01:27;20.1;;;9.8;;
69917;SDS011;57203;42.672;23.334;2023-02-22T03:02:26;20.1;;;10.0;;
69917;SDS011;57203;42.672;23.334;2023-02-22T03:03:28;18.5;;;9.8;;
69917;SDS011;57203;42.672;23.334;2023-02-22T03:04:24;19.4;;;10.1;;
69917;SDS011;57203;42.672;23.334;2023-02-22T03:05:28;15.6;;;8.8;;
69917;SDS011;57203;42.672;23.334;2023-02-22T03:07:27;17.8;;;9.0;;
69917;SDS011;57203;42.672;23.334;2023-02-22T03:08:23;19.1;;;9.3;;
69917;SDS011;57203;42.672;23.334;2023-02-22T03:09:26;19.1;;;9.2;;
69917;SDS011;57203;42.672;23.334;2023-02-22T03:10:26;18.4;;;9.3;;
69917;SDS011;57203;42.672;23.334;2023-02-22T03:11:23;19.8;;;9.8;;
69917;SDS011;57203;42.672;23.334;2023-02-22T03:12:26;19.8;;;9.2;;
69917;SDS011;57203;42.672;23.334;2023-02-22T03:14:25;17.6;;;8.9;;
69917;SDS011;57203;42.672;23.334;2023-02-22T03:15:26;18.4;;;9.2;;
69917;SDS011;57203;42.672;23.334;2023-02-22T03:16:28;18.4;;;9.1;;
69917;SDS011;57203;42.672;23.334;2023-02-22T03:17:25;17.6;;;8.5;;
69917;SDS011;57203;42.672;23.334;2023-02-22T03:18:25;19.2;;;9.5;;
69917;SDS011;57203;42.672;23.334;2023-02-22T03:19:25;20.7;;;7.8;;
69917;SDS011;57203;42.672;23.334;2023-02-22T03:20:27;14.8;;;7.0;;
69917;SDS011;57203;42.672;23.334;2023-02-22T03:21:27;14.2;;;6.8;;
69917;SDS011;57203;42.672;23.334;2023-02-22T03:22:25;13.9;;;6.7;;
69917;SDS011;57203;42.672;23.334;2023-02-22T03:23:26;12.8;;;6.3;;
69917;SDS011;57203;42.672;23.334;2023-02-22T03:24:26;11.0;;;6.5;;
69917;SDS011;57203;42.672;23.334;2023-02-22T03:25:26;11.0;;;6.3;;
69917;SDS011;57203;42.672;23.334;2023-02-22T03:26:27;10.7;;;6.6;;
69917;SDS011;57203;42.672;23.334;2023-02-22T03:27:26;11.9;;;6.1;;
69917;SDS011;57203;42.672;23.334;2023-02-22T03:28:26;11.9;;;6.3;;
69917;SDS011;57203;42.672;23.334;2023-02-22T03:29:26;10.7;;;6.0;;
69917;SDS011;57203;42.672;23.334;2023-02-22T03:30:27;12.5;;;6.4;;
69917;SDS011;57203;42.672;23.334;2023-02-22T03:31:27;10.9;;;5.6;;
69917;SDS011;57203;42.672;23.334;2023-02-22T03:32:27;10.2;;;5.8;;
69917;SDS011;57203;42.672;23.334;2023-02-22T03:33:28;10.3;;;6.1;;
69917;SDS011;57203;42.672;23.334;2023-02-22T03:34:28;11.2;;;5.6;;
69917;SDS011;57203;42.672;23.334;2023-02-22T03:36:28;8.2;;;5.2;;
69917;SDS011;57203;42.672;23.334;2023-02-22T03:37:28;10.4;;;6.3;;
69917;SDS011;57203;42.672;23.334;2023-02-22T03:38:28;10.4;;;5.7;;
69917;SDS011;57203;42.672;23.334;2023-02-22T03:40:29;10.2;;;5.6;;
69917;SDS011;57203;42.672;23.334;2023-02-22T03:41:28;10.2;;;6.1;;
69917;SDS011;57203;42.672;23.334;2023-02-22T03:42:29;9.0;;;5.5;;
69917;SDS011;57203;42.672;23.334;2023-02-22T03:43:29;9.0;;;5.8;;
69917;SDS011;57203;42.672;23.334;2023-02-22T03:44:29;11.6;;;5.7;;
69917;SDS011;57203;42.672;23.334;2023-02-22T03:46:29;12.7;;;5.9;;
69917;SDS011;57203;42.672;23.334;2023-02-22T03:47:29;12.7;;;5.8;;
69917;SDS011;57203;42.672;23.334;2023-02-22T03:48:30;12.0;;;5.7;;
69917;SDS011;57203;42.672;23.334;2023-02-22T03:49:31;15.0;;;6.3;;
69917;SDS011;57203;42.672;23.334;2023-02-22T03:50:31;15.0;;;5.8;;
69917;SDS011;57203;42.672;23.334;2023-02-22T03:51:29;10.6;;;6.4;;
69917;SDS011;57203;42.672;23.334;2023-02-22T03:52:30;13.4;;;5.8;;
69917;SDS011;57203;42.672;23.334;2023-02-22T03:53:30;21.0;;;9.5;;
69917;SDS011;57203;42.672;23.334;2023-02-22T03:54:30;14.2;;;7.3;;
69917;SDS011;57203;42.672;23.334;2023-02-22T03:55:30;12.2;;;6.4;;
69917;SDS011;57203;42.672;23.334;2023-02-22T03:56:32;12.2;;;5.9;;
69917;SDS011;57203;42.672;23.334;2023-02-22T03:57:31;12.4;;;6.3;;
69917;SDS011;57203;42.672;23.334;2023-02-22T03:58:31;14.4;;;8.3;;
69917;SDS011;57203;42.672;23.334;2023-02-22T03:59:31;18.2;;;6.4;;
69917;SDS011;57203;42.672;23.334;2023-02-22T04:00:32;12.7;;;8.0;;
69917;SDS011;57203;42.672;23.334;2023-02-22T04:01:32;17.3;;;7.8;;
69917;SDS011;57203;42.672;23.334;2023-02-22T04:02:31;15.2;;;6.4;;
69917;SDS011;57203;42.672;23.334;2023-02-22T04:03:32;12.3;;;5.8;;
69917;SDS011;57203;42.672;23.334;2023-02-22T04:04:32;12.3;;;6.3;;
69917;SDS011;57203;42.672;23.334;2023-02-22T04:05:32;13.3;;;5.3;;
69917;SDS011;57203;42.672;23.334;2023-02-22T04:06:32;12.8;;;6.3;;
69917;SDS011;57203;42.672;23.334;2023-02-22T04:07:32;12.8;;;17.6;;
69917;SDS011;57203;42.672;23.334;2023-02-22T04:08:32;45.0;;;23.0;;
69917;SDS011;57203;42.672;23.334;2023-02-22T04:09:33;48.8;;;19.4;;
69917;SDS011;57203;42.672;23.334;2023-02-22T04:10:33;48.8;;;34.6;;
69917;SDS011;57203;42.672;23.334;2023-02-22T04:11:33;90.6;;;38.1;;
69917;SDS011;57203;42.672;23.334;2023-02-22T04:12:33;81.5;;;35.0;;
69917;SDS011;57203;42.672;23.334;2023-02-22T04:13:33;81.5;;;24.3;;
69917;SDS011;57203;42.672;23.334;2023-02-22T04:14:33;59.5;;;18.6;;
69917;SDS011;57203;42.672;23.334;2023-02-22T04:15:34;39.3;;;10.2;;
69917;SDS011;57203;42.672;23.334;2023-02-22T04:16:34;30.5;;;12.6;;
69917;SDS011;57203;42.672;23.334;2023-02-22T04:17:34;30.5;;;11.2;;
69917;SDS011;57203;42.672;23.334;2023-02-22T04:18:34;27.0;;;8.5;;
69917;SDS011;57203;42.672;23.334;2023-02-22T04:19:34;17.3;;;8.2;;
69917;SDS011;57203;42.672;23.334;2023-02-22T04:20:34;19.0;;;10.6;;
69917;SDS011;57203;42.672;23.334;2023-02-22T04:21:35;21.8;;;10.8;;
69917;SDS011;57203;42.672;23.334;2023-02-22T04:22:35;32.1;;;14.9;;
69917;SDS011;57203;42.672;23.334;2023-02-22T04:23:35;32.1;;;12.1;;
69917;SDS011;57203;42.672;23.334;2023-02-22T04:24:35;22.2;;;10.9;;
69917;SDS011;57203;42.672;23.334;2023-02-22T04:25:35;22.5;;;9.8;;
69917;SDS011;57203;42.672;23.334;2023-02-22T04:26:35;22.5;;;9.6;;
69917;SDS011;57203;42.672;23.334;2023-02-22T04:27:36;18.1;;;10.1;;
69917;SDS011;57203;42.672;23.334;2023-02-22T04:28:36;17.5;;;8.9;;
69917;SDS011;57203;42.672;23.334;2023-02-22T04:29:36;17.5;;;8.4;;
69917;SDS011;57203;42.672;23.334;2023-02-22T04:30:36;18.1;;;8.1;;
69917;SDS011;57203;42.672;23.334;2023-02-22T04:31:36;18.1;;;6.7;;
69917;SDS011;57203;42.672;23.334;2023-02-22T04:32:36;18.3;;;8.3;;
69917;SDS011;57203;42.672;23.334;2023-02-22T04:33:36;16.5;;;7.4;;
69917;SDS011;57203;42.672;23.334;2023-02-22T04:34:37;16.5;;;8.2;;
69917;SDS011;57203;42.672;23.334;2023-02-22T04:35:37;16.2;;;7.5;;
69917;SDS011;57203;42.672;23.334;2023-02-22T04:36:37;12.0;;;6.6;;
69917;SDS011;57203;42.672;23.334;2023-02-22T04:37:37;17.5;;;7.4;;
69917;SDS011;57203;42.672;23.334;2023-02-22T04:38:37;17.5;;;7.7;;
69917;SDS011;57203;42.672;23.334;2023-02-22T04:39:38;16.5;;;7.3;;
69917;SDS011;57203;42.672;23.334;2023-02-22T04:40:38;16.6;;;7.7;;
69917;SDS011;57203;42.672;23.334;2023-02-22T04:42:38;12.7;;;8.4;;
69917;SDS011;57203;42.672;23.334;2023-02-22T04:43:38;15.3;;;7.8;;
69917;SDS011;57203;42.672;23.334;2023-02-22T04:44:38;15.3;;;8.2;;
69917;SDS011;57203;42.672;23.334;2023-02-22T04:45:39;15.3;;;7.8;;
69917;SDS011;57203;42.672;23.334;2023-02-22T04:46:39;15.3;;;9.2;;
69917;SDS011;57203;42.672;23.334;2023-02-22T04:47:39;17.6;;;8.9;;
69917;SDS011;57203;42.672;23.334;2023-02-22T04:48:39;17.6;;;9.0;;
69917;SDS011;57203;42.672;23.334;2023-02-22T04:49:39;21.0;;;9.6;;
69917;SDS011;57203;42.672;23.334;2023-02-22T04:50:39;19.7;;;10.4;;
69917;SDS011;57203;42.672;23.334;2023-02-22T04:51:40;20.8;;;12.9;;
69917;SDS011;57203;42.672;23.334;2023-02-22T04:52:40;20.8;;;10.2;;
69917;SDS011;57203;42.672;23.334;2023-02-22T04:53:40;20.4;;;11.0;;
69917;SDS011;57203;42.672;23.334;2023-02-22T04:54:40;18.4;;;11.1;;
69917;SDS011;57203;42.672;23.334;2023-02-22T04:55:40;20.3;;;10.5;;
69917;SDS011;57203;42.672;23.334;2023-02-22T04:56:40;17.0;;;9.5;;
69917;SDS011;57203;42.672;23.334;2023-02-22T04:57:41;18.8;;;11.1;;
69917;SDS011;57203;42.672;23.334;2023-02-22T04:58:41;19.2;;;9.6;;
69917;SDS011;57203;42.672;23.334;2023-02-22T04:59:41;19.2;;;9.4;;
69917;SDS011;57203;42.672;23.334;2023-02-22T05:00:41;17.0;;;9.6;;
69917;SDS011;57203;42.672;23.334;2023-02-22T05:01:41;16.6;;;10.8;;
69917;SDS011;57203;42.672;23.334;2023-02-22T05:02:41;18.2;;;11.8;;
69917;SDS011;57203;42.672;23.334;2023-02-22T05:03:42;20.1;;;11.5;;
69917;SDS011;57203;42.672;23.334;2023-02-22T05:04:42;25.1;;;10.8;;
69917;SDS011;57203;42.672;23.334;2023-02-22T05:05:42;25.0;;;12.4;;
69917;SDS011;57203;42.672;23.334;2023-02-22T05:06:42;23.5;;;13.0;;
69917;SDS011;57203;42.672;23.334;2023-02-22T05:07:42;23.5;;;11.6;;
69917;SDS011;57203;42.672;23.334;2023-02-22T05:08:42;23.2;;;11.5;;
69917;SDS011;57203;42.672;23.334;2023-02-22T05:09:43;21.3;;;11.7;;
69917;SDS011;57203;42.672;23.334;2023-02-22T05:10:43;26.6;;;10.8;;
69917;SDS011;57203;42.672;23.334;2023-02-22T05:11:43;22.9;;;11.0;;
69917;SDS011;57203;42.672;23.334;2023-02-22T05:12:43;21.6;;;10.9;;
69917;SDS011;57203;42.672;23.334;2023-02-22T05:13:43;21.6;;;9.8;;
69917;SDS011;57203;42.672;23.334;2023-02-22T05:14:43;19.7;;;9.7;;
69917;SDS011;57203;42.672;23.334;2023-02-22T05:15:43;21.8;;;9.0;;
69917;SDS011;57203;42.672;23.334;2023-02-22T05:16:44;21.1;;;9.7;;
69917;SDS011;57203;42.672;23.334;2023-02-22T05:17:44;21.1;;;7.2;;
69917;SDS011;57203;42.672;23.334;2023-02-22T05:18:44;14.0;;;8.6;;
69917;SDS011;57203;42.672;23.334;2023-02-22T05:19:44;19.3;;;9.1;;
69917;SDS011;57203;42.672;23.334;2023-02-22T05:20:44;21.2;;;7.6;;
69917;SDS011;57203;42.672;23.334;2023-02-22T05:21:44;21.2;;;8.5;;
69917;SDS011;57203;42.672;23.334;2023-02-22T05:22:45;19.4;;;9.3;;
69917;SDS011;57203;42.672;23.334;2023-02-22T05:23:45;19.9;;;8.1;;
69917;SDS011;57203;42.672;23.334;2023-02-22T05:24:45;19.9;;;7.8;;
69917;SDS011;57203;42.672;23.334;2023-02-22T05:25:45;19.1;;;7.3;;
69917;SDS011;57203;42.672;23.334;2023-02-22T05:26:45;13.5;;;8.1;;
69917;SDS011;57203;42.672;23.334;2023-02-22T05:27:48;21.3;;;8.4;;
69917;SDS011;57203;42.672;23.334;2023-02-22T05:28:46;20.2;;;8.9;;
69917;SDS011;57203;42.672;23.334;2023-02-22T05:29:46;20.2;;;9.1;;
69917;SDS011;57203;42.672;23.334;2023-02-22T05:30:46;22.0;;;8.2;;
69917;SDS011;57203;42.672;23.334;2023-02-22T05:31:46;15.1;;;7.5;;
69917;SDS011;57203;42.672;23.334;2023-02-22T05:32:46;14.2;;;7.6;;
69917;SDS011;57203;42.672;23.334;2023-02-22T05:33:46;14.4;;;7.4;;
69917;SDS011;57203;42.672;23.334;2023-02-22T05:34:47;14.6;;;7.3;;
69917;SDS011;57203;42.672;23.334;2023-02-22T05:35:47;15.8;;;7.4;;
69917;SDS011;57203;42.672;23.334;2023-02-22T05:36:47;15.8;;;7.0;;
69917;SDS011;57203;42.672;23.334;2023-02-22T05:37:47;14.8;;;7.3;;
69917;SDS011;57203;42.672;23.334;2023-02-22T05:38:47;15.6;;;7.5;;
69917;SDS011;57203;42.672;23.334;2023-02-22T05:39:47;15.6;;;8.6;;
69917;SDS011;57203;42.672;23.334;2023-02-22T05:40:47;17.2;;;8.1;;
69917;SDS011;57203;42.672;23.334;2023-02-22T05:41:48;19.2;;;8.7;;
69917;SDS011;57203;42.672;23.334;2023-02-22T05:42:48;17.7;;;7.4;;
69917;SDS011;57203;42.672;23.334;2023-02-22T05:44:48;21.6;;;7.5;;
69917;SDS011;57203;42.672;23.334;2023-02-22T05:46:49;17.4;;;8.7;;
69917;SDS011;57203;42.672;23.334;2023-02-22T05:47:49;21.6;;;8.8;;
69917;SDS011;57203;42.672;23.334;2023-02-22T05:48:49;21.1;;;9.3;;
69917;SDS011;57203;42.672;23.334;2023-02-22T05:49:49;22.2;;;9.2;;
69917;SDS011;57203;42.672;23.334;2023-02-22T05:50:49;22.2;;;8.5;;
69917;SDS011;57203;42.672;23.334;2023-02-22T05:51:49;26.6;;;8.6;;
69917;SDS011;57203;42.672;23.334;2023-02-22T05:52:50;18.5;;;8.8;;
69917;SDS011;57203;42.672;23.334;2023-02-22T05:53:50;16.6;;;7.2;;
69917;SDS011;57203;42.672;23.334;2023-02-22T05:54:50;16.6;;;7.8;;
69917;SDS011;57203;42.672;23.334;2023-02-22T05:55:50;17.6;;;8.1;;
69917;SDS011;57203;42.672;23.334;2023-02-22T05:56:50;20.0;;;7.1;;
69917;SDS011;57203;42.672;23.334;2023-02-22T05:57:51;14.8;;;8.3;;
69917;SDS011;57203;42.672;23.334;2023-02-22T05:58:51;21.2;;;8.7;;
69917;SDS011;57203;42.672;23.334;2023-02-22T05:59:51;22.6;;;8.0;;
69917;SDS011;57203;42.672;23.334;2023-02-22T06:00:51;17.1;;;6.7;;
69917;SDS011;57203;42.672;23.334;2023-02-22T06:01:51;17.1;;;7.6;;
69917;SDS011;57203;42.672;23.334;2023-02-22T06:02:53;17.0;;;7.0;;
69917;SDS011;57203;42.672;23.334;2023-02-22T06:03:52;15.4;;;7.4;;
69917;SDS011;57203;42.672;23.334;2023-02-22T06:04:52;18.3;;;9.3;;
69917;SDS011;57203;42.672;23.334;2023-02-22T06:05:52;25.7;;;10.6;;
69917;SDS011;57203;42.672;23.334;2023-02-22T06:06:52;38.3;;;10.7;;
69917;SDS011;57203;42.672;23.334;2023-02-22T06:07:52;33.3;;;10.5;;
69917;SDS011;57203;42.672;23.334;2023-02-22T06:08:52;29.9;;;9.9;;
69917;SDS011;57203;42.672;23.334;2023-02-22T06:09:52;31.3;;;9.5;;
69917;SDS011;57203;42.672;23.334;2023-02-22T06:10:52;31.9;;;10.3;;
69917;SDS011;57203;42.672;23.334;2023-02-22T06:11:53;31.9;;;8.8;;
69917;SDS011;57203;42.672;23.334;2023-02-22T06:12:53;21.5;;;8.9;;
69917;SDS011;57203;42.672;23.334;2023-02-22T06:13:53;32.8;;;10.4;;
69917;SDS011;57203;42.672;23.334;2023-02-22T06:14:53;25.7;;;9.9;;
69917;SDS011;57203;42.672;23.334;2023-02-22T06:15:53;25.7;;;8.3;;
69917;SDS011;57203;42.672;23.334;2023-02-22T06:16:54;24.2;;;9.1;;
69917;SDS011;57203;42.672;23.334;2023-02-22T06:17:54;28.0;;;8.5;;
69917;SDS011;57203;42.672;23.334;2023-02-22T06:18:54;23.1;;;8.7;;
69917;SDS011;57203;42.672;23.334;2023-02-22T06:19:54;25.0;;;8.5;;
69917;SDS011;57203;42.672;23.334;2023-02-22T06:20:54;18.9;;;6.8;;
69917;SDS011;57203;42.672;23.334;2023-02-22T06:21:55;18.9;;;7.2;;
69917;SDS011;57203;42.672;23.334;2023-02-22T06:22:55;24.9;;;7.0;;
69917;SDS011;57203;42.672;23.334;2023-02-22T06:23:55;21.3;;;8.2;;
69917;SDS011;57203;42.672;23.334;2023-02-22T06:24:55;22.1;;;8.1;;